createdAt,value
2018-11-06T00:00:49.499Z,4.54
2018-11-06T00:03:24.449Z,4.48
2018-11-06T00:05:54.009Z,4.54
2018-11-06T00:08:23.024Z,4.42
2018-11-06T00:10:51.841Z,4.35
2018-11-06T00:13:19.545Z,4.56
2018-11-06T00:15:46.673Z,4.43
2018-11-06T00:18:15.395Z,4.59
2018-11-06T00:20:42.764Z,4.58
2018-11-06T00:23:11.217Z,4.60
2018-11-06T00:25:38.451Z,4.65
2018-11-06T00:28:05.592Z,4.63
2018-11-06T00:30:34.807Z,4.54
2018-11-06T00:33:01.984Z,4.23
2018-11-06T00:35:29.151Z,4.36
2018-11-06T00:37:57.937Z,4.36
2018-11-06T00:40:25.204Z,4.32
2018-11-06T00:42:52.392Z,4.19
2018-11-06T00:45:19.773Z,4.12
2018-11-06T00:47:46.980Z,4.06
2018-11-06T00:50:14.332Z,4.10
2018-11-06T00:52:43.751Z,4.01
2018-11-06T00:55:12.307Z,4.02
2018-11-06T00:57:41.264Z,4.01
2018-11-06T01:00:11.611Z,3.81
2018-11-06T01:02:40.927Z,3.67
2018-11-06T01:05:10.931Z,3.69
2018-11-06T01:07:38.097Z,3.62
2018-11-06T01:10:05.964Z,3.56
2018-11-06T01:12:33.143Z,3.46
2018-11-06T01:15:00.275Z,3.46
2018-11-06T01:17:27.455Z,3.49
2018-11-06T01:19:54.620Z,3.59
2018-11-06T01:22:21.819Z,3.60
2018-11-06T01:24:48.983Z,3.73
2018-11-06T01:27:16.181Z,3.73
2018-11-06T01:29:43.328Z,3.75
2018-11-06T01:32:10.548Z,3.85
2018-11-06T01:34:37.696Z,3.88
2018-11-06T01:37:04.820Z,3.90
2018-11-06T01:39:31.957Z,3.77
2018-11-06T01:41:59.116Z,3.78
2018-11-06T01:44:26.306Z,3.77
2018-11-06T01:46:53.488Z,3.72
2018-11-06T01:49:20.670Z,3.62
2018-11-06T01:51:47.812Z,3.62
2018-11-06T01:54:15.008Z,3.53
2018-11-06T01:56:42.503Z,3.52
2018-11-06T01:59:09.725Z,3.55
2018-11-06T02:01:36.884Z,3.53
2018-11-06T02:04:04.135Z,3.55
2018-11-06T02:06:31.304Z,3.49
2018-11-06T02:21:58.106Z,3.55
2018-11-06T02:24:25.216Z,3.31
2018-11-06T02:26:52.491Z,3.31
2018-11-06T02:29:19.654Z,3.08
2018-11-06T02:31:46.872Z,3.05
2018-11-06T02:34:14.287Z,3.24
2018-11-06T02:36:41.470Z,3.01
2018-11-06T02:39:09.340Z,2.94
2018-11-06T02:41:36.531Z,3.00
2018-11-06T02:44:03.732Z,3.13
2018-11-06T02:46:30.898Z,3.16
2018-11-06T02:48:58.091Z,3.04
2018-11-06T02:51:25.300Z,2.90
2018-11-06T02:53:52.495Z,3.05
2018-11-06T02:56:19.650Z,3.18
2018-11-06T02:58:46.792Z,3.12
2018-11-06T03:01:13.944Z,3.15
2018-11-06T03:03:41.903Z,3.10
2018-11-06T03:06:10.385Z,3.20
2018-11-06T03:08:37.619Z,3.21
2018-11-06T03:11:04.816Z,3.29
2018-11-06T03:13:32.030Z,3.23
2018-11-06T03:16:03.535Z,3.16
2018-11-06T03:18:35.354Z,3.24
2018-11-06T03:21:02.852Z,3.23
2018-11-06T03:23:33.540Z,3.24
2018-11-06T03:26:05.265Z,3.13
2018-11-06T03:28:41.574Z,3.16
2018-11-06T03:31:10.911Z,2.98
2018-11-06T03:33:39.535Z,2.96
2018-11-06T03:36:07.442Z,2.82
2018-11-06T03:38:35.267Z,2.91
2018-11-06T03:41:04.045Z,2.98
2018-11-06T03:43:32.572Z,3.03
2018-11-06T03:45:59.880Z,2.94
2018-11-06T03:48:27.585Z,3.01
2018-11-06T03:50:55.979Z,2.93
2018-11-06T03:53:23.755Z,3.05
2018-11-06T03:55:52.521Z,3.00
2018-11-06T03:58:20.437Z,3.08
2018-11-06T04:00:48.463Z,2.92
2018-11-06T04:03:15.611Z,2.93
2018-11-06T04:05:42.732Z,2.83
2018-11-06T04:08:09.922Z,3.07
2018-11-06T04:10:37.056Z,2.65
2018-11-06T04:13:04.228Z,2.81
2018-11-06T04:15:31.450Z,2.74
2018-11-06T04:17:58.619Z,2.57
2018-11-06T04:20:25.758Z,2.80
2018-11-06T04:22:52.931Z,2.90
2018-11-06T04:25:20.037Z,2.99
2018-11-06T04:27:47.165Z,3.08
2018-11-06T04:30:14.372Z,3.04
2018-11-06T04:32:42.256Z,3.09
2018-11-06T04:35:10.020Z,3.02
2018-11-06T04:37:37.723Z,2.99
2018-11-06T04:40:06.424Z,2.92
2018-11-06T04:42:33.557Z,2.92
2018-11-06T04:45:01.129Z,2.89
2018-11-06T04:47:28.401Z,2.75
2018-11-06T04:49:55.568Z,2.81
2018-11-06T04:52:22.705Z,2.80
2018-11-06T04:54:49.883Z,2.38
2018-11-06T04:57:17.038Z,2.71
2018-11-06T04:59:44.169Z,2.72
2018-11-06T05:02:11.398Z,2.74
2018-11-06T05:04:38.525Z,2.77
2018-11-06T05:07:05.730Z,2.53
2018-11-06T05:09:32.921Z,2.23
2018-11-06T05:12:00.060Z,2.38
2018-11-06T05:14:27.244Z,2.20
2018-11-06T05:16:54.392Z,2.24
2018-11-06T05:19:21.537Z,2.37
2018-11-06T05:21:48.800Z,2.36
2018-11-06T05:24:15.988Z,2.41
2018-11-06T05:26:43.179Z,2.45
2018-11-06T05:29:10.359Z,2.55
2018-11-06T05:31:37.569Z,2.34
2018-11-06T05:34:04.786Z,2.19
2018-11-06T05:36:31.901Z,2.21
2018-11-06T05:38:59.162Z,2.41
2018-11-06T05:41:26.226Z,2.39
2018-11-06T05:43:53.407Z,2.50
2018-11-06T05:46:20.676Z,2.44
2018-11-06T05:48:47.880Z,2.50
2018-11-06T05:51:15.064Z,2.35
2018-11-06T05:53:42.221Z,2.13
2018-11-06T05:56:09.359Z,2.26
2018-11-06T05:58:37.553Z,2.42
2018-11-06T06:01:04.890Z,2.31
2018-11-06T06:03:32.056Z,1.93
2018-11-06T06:05:59.226Z,1.98
2018-11-06T06:08:26.355Z,1.96
2018-11-06T06:10:53.618Z,2.10
2018-11-06T06:13:20.745Z,2.30
2018-11-06T06:15:47.865Z,2.26
2018-11-06T06:18:15.083Z,2.27
2018-11-06T06:20:42.295Z,2.33
2018-11-06T06:23:09.579Z,2.34
2018-11-06T06:25:36.762Z,2.34
2018-11-06T06:28:04.046Z,2.36
2018-11-06T06:30:31.165Z,2.30
2018-11-06T06:32:58.334Z,2.44
2018-11-06T06:35:25.491Z,2.33
2018-11-06T06:37:52.715Z,2.20
2018-11-06T06:40:19.892Z,2.21
2018-11-06T06:42:47.326Z,2.27
2018-11-06T06:45:15.936Z,2.20
2018-11-06T06:47:43.144Z,2.17
2018-11-06T06:50:12.169Z,2.22
2018-11-06T06:52:40.101Z,2.30
2018-11-06T06:55:08.411Z,2.37
2018-11-06T06:57:36.197Z,2.41
2018-11-06T07:13:03.132Z,2.53
2018-11-06T07:15:30.167Z,2.61
2018-11-06T07:17:57.358Z,2.70
2018-11-06T07:20:25.186Z,2.80
2018-11-06T07:22:52.507Z,2.92
2018-11-06T07:25:19.664Z,2.93
2018-11-06T07:27:47.397Z,3.00
2018-11-06T07:30:16.157Z,3.00
2018-11-06T07:32:43.873Z,3.07
2018-11-06T07:35:11.755Z,3.09
2018-11-06T07:37:39.658Z,3.14
2018-11-06T07:40:15.530Z,3.14
2018-11-06T07:42:42.702Z,3.26
2018-11-06T07:45:12.282Z,3.35
2018-11-06T07:47:39.384Z,3.40
2018-11-06T07:50:07.359Z,3.43
2018-11-06T07:52:34.959Z,3.59
2018-11-06T07:55:02.252Z,3.71
2018-11-06T07:57:29.428Z,3.76
2018-11-06T07:59:56.558Z,3.88
2018-11-06T08:02:23.794Z,3.92
2018-11-06T08:04:50.960Z,4.09
2018-11-06T08:07:18.121Z,4.10
2018-11-06T08:09:45.421Z,4.14
2018-11-06T08:12:12.492Z,4.23
2018-11-06T08:14:39.710Z,4.42
2018-11-06T08:17:07.063Z,4.53
2018-11-06T08:19:34.300Z,4.61
2018-11-06T08:22:01.488Z,4.69
2018-11-06T08:24:28.676Z,4.98
2018-11-06T08:26:55.848Z,5.08
2018-11-06T08:29:22.997Z,5.44
2018-11-06T08:31:50.384Z,5.60
2018-11-06T08:34:17.351Z,5.74
2018-11-06T08:36:44.559Z,5.71
2018-11-06T08:39:11.749Z,5.89
2018-11-06T08:41:38.983Z,6.04
2018-11-06T08:44:07.722Z,6.11
2018-11-06T08:46:34.879Z,6.17
2018-11-06T08:49:02.340Z,6.55
2018-11-06T08:51:29.457Z,6.73
2018-11-06T08:53:56.715Z,6.87
2018-11-06T08:56:23.871Z,6.93
2018-11-06T08:58:50.972Z,6.99
2018-11-06T09:01:18.155Z,7.20
2018-11-06T09:03:45.352Z,7.30
2018-11-06T09:06:12.499Z,7.40
2018-11-06T09:08:39.680Z,7.64
2018-11-06T09:11:06.820Z,8.19
2018-11-06T09:13:34.007Z,8.38
2018-11-06T09:16:01.126Z,8.60
2018-11-06T09:18:28.244Z,9.02
2018-11-06T09:20:55.367Z,9.48
2018-11-06T09:23:22.524Z,9.76
2018-11-06T09:25:49.673Z,9.89
2018-11-06T09:28:16.884Z,10.19
2018-11-06T09:30:44.020Z,10.32
2018-11-06T09:33:11.172Z,10.44
2018-11-06T09:35:38.314Z,10.54
2018-11-06T09:38:05.486Z,10.62
2018-11-06T09:40:32.669Z,10.71
2018-11-06T09:42:59.756Z,10.79
2018-11-06T09:45:27.015Z,10.75
2018-11-06T09:47:54.084Z,10.83
2018-11-06T09:50:21.232Z,10.93
2018-11-06T09:52:48.389Z,10.98
2018-11-06T09:55:16.436Z,11.13
2018-11-06T09:57:43.719Z,11.19
2018-11-06T10:00:13.684Z,11.30
2018-11-06T10:02:40.800Z,11.46
2018-11-06T10:05:08.704Z,11.51
2018-11-06T10:07:36.285Z,11.66
2018-11-06T10:10:05.143Z,11.70
2018-11-06T10:12:32.292Z,11.72
2018-11-06T10:14:59.500Z,11.75
2018-11-06T10:17:26.831Z,11.96
2018-11-06T10:19:53.941Z,11.91
2018-11-06T10:22:21.080Z,12.02
2018-11-06T10:24:48.277Z,12.06
2018-11-06T10:27:15.475Z,12.21
2018-11-06T10:29:42.620Z,12.26
2018-11-06T10:32:09.809Z,12.43
2018-11-06T10:34:36.996Z,12.47
2018-11-06T10:37:04.463Z,12.51
2018-11-06T10:39:31.642Z,12.61
2018-11-06T10:41:58.818Z,12.68
2018-11-06T10:44:25.952Z,12.76
2018-11-06T10:46:53.147Z,12.87
2018-11-06T10:49:20.345Z,12.88
2018-11-06T10:51:47.507Z,12.93
2018-11-06T10:54:14.660Z,12.98
2018-11-06T10:56:41.792Z,13.06
2018-11-06T10:59:08.959Z,13.09
2018-11-06T11:01:41.889Z,13.22
2018-11-06T11:04:14.753Z,13.35
2018-11-06T11:06:41.896Z,13.38
2018-11-06T11:09:09.914Z,13.45
2018-11-06T11:11:37.059Z,13.50
2018-11-06T11:14:04.224Z,13.49
2018-11-06T11:16:31.424Z,13.50
2018-11-06T11:18:58.627Z,13.47
2018-11-06T11:21:25.803Z,13.56
2018-11-06T11:23:52.975Z,13.52
2018-11-06T11:26:20.141Z,13.55
2018-11-06T11:28:47.329Z,13.56
2018-11-06T11:31:14.488Z,13.52
2018-11-06T11:33:41.692Z,13.58
2018-11-06T11:36:08.920Z,13.67
2018-11-06T11:38:36.136Z,13.69
2018-11-06T11:41:03.286Z,13.67
2018-11-06T11:43:30.464Z,13.68
2018-11-06T11:45:57.761Z,13.69
2018-11-06T11:48:24.825Z,13.68
2018-11-06T11:50:52.004Z,13.78
2018-11-06T11:53:19.156Z,13.70
2018-11-06T11:55:46.396Z,13.67
2018-11-06T11:58:13.552Z,13.70
2018-11-06T12:00:40.800Z,13.73
2018-11-06T12:03:08.376Z,13.76
2018-11-06T12:05:35.538Z,13.83
2018-11-06T12:08:02.681Z,13.92
2018-11-06T12:10:29.887Z,14.05
2018-11-06T12:12:57.058Z,14.19
2018-11-06T12:15:24.289Z,14.32
2018-11-06T12:17:51.424Z,14.37
2018-11-06T12:20:18.610Z,14.36
2018-11-06T12:22:45.812Z,14.69
2018-11-06T12:25:20.037Z,14.80
2018-11-06T12:27:47.050Z,15.25
2018-11-06T12:30:15.480Z,15.43
2018-11-06T12:32:42.677Z,15.09
2018-11-06T12:35:10.777Z,15.42
2018-11-06T12:37:38.214Z,15.37
2018-11-06T12:40:06.387Z,15.10
2018-11-06T12:42:33.569Z,15.09
2018-11-06T12:45:00.756Z,15.21
2018-11-06T12:47:27.927Z,14.95
2018-11-06T12:49:55.419Z,14.90
2018-11-06T12:52:22.628Z,14.88
2018-11-06T12:54:49.769Z,14.72
2018-11-06T12:57:16.911Z,14.77
2018-11-06T12:59:44.104Z,14.48
2018-11-06T13:02:11.252Z,14.44
2018-11-06T13:04:38.441Z,14.52
2018-11-06T13:07:05.865Z,14.63
2018-11-06T13:09:33.049Z,14.78
2018-11-06T13:12:00.172Z,14.82
2018-11-06T13:14:27.292Z,15.28
2018-11-06T13:16:54.533Z,15.47
2018-11-06T13:19:21.662Z,15.10
2018-11-06T13:21:48.823Z,15.33
2018-11-06T13:24:15.980Z,15.81
2018-11-06T13:26:43.243Z,15.60
2018-11-06T13:29:10.306Z,15.38
2018-11-06T13:31:37.634Z,15.02
2018-11-06T13:34:04.882Z,14.72
2018-11-06T13:36:32.092Z,14.72
2018-11-06T13:38:59.296Z,14.39
2018-11-06T13:41:26.463Z,14.37
2018-11-06T13:43:53.833Z,14.19
2018-11-06T13:46:20.868Z,13.92
2018-11-06T13:48:48.072Z,13.86
2018-11-06T13:51:15.424Z,13.73
2018-11-06T13:53:42.881Z,13.66
2018-11-06T13:56:10.097Z,13.55
2018-11-06T13:58:37.282Z,13.75
2018-11-06T14:01:05.055Z,13.73
2018-11-06T14:03:32.153Z,13.57
2018-11-06T14:05:59.416Z,13.42
2018-11-06T14:08:26.585Z,13.42
2018-11-06T14:10:53.748Z,13.49
2018-11-06T14:13:21.006Z,13.67
2018-11-06T14:15:48.206Z,13.24
2018-11-06T14:18:15.465Z,12.91
2018-11-06T14:20:42.624Z,13.12
2018-11-06T14:23:09.814Z,13.02
2018-11-06T14:25:37.056Z,12.71
2018-11-06T14:28:04.321Z,12.41
2018-11-06T14:30:31.516Z,12.36
2018-11-06T14:32:58.694Z,12.24
2018-11-06T14:35:25.874Z,12.17
2018-11-06T14:37:53.031Z,12.13
2018-11-06T14:40:20.236Z,12.07
2018-11-06T14:42:47.480Z,12.03
2018-11-06T14:45:16.893Z,12.07
2018-11-06T14:47:44.157Z,12.13
2018-11-06T14:50:11.889Z,11.86
2018-11-06T14:52:39.027Z,11.67
2018-11-06T14:55:07.671Z,11.54
2018-11-06T14:57:34.859Z,11.60
2018-11-06T15:00:02.037Z,11.40
2018-11-06T15:02:29.240Z,11.36
2018-11-06T15:04:56.475Z,11.29
2018-11-06T15:07:23.741Z,11.19
2018-11-06T15:09:50.883Z,11.05
2018-11-06T15:12:18.009Z,11.06
2018-11-06T15:14:45.396Z,10.91
2018-11-06T15:17:12.536Z,10.83
2018-11-06T15:19:39.739Z,10.82
2018-11-06T15:22:06.885Z,10.66
2018-11-06T15:24:34.090Z,10.59
2018-11-06T15:27:01.300Z,10.55
2018-11-06T15:29:28.478Z,10.47
2018-11-06T15:31:55.644Z,10.47
2018-11-06T15:34:22.854Z,10.42
2018-11-06T15:36:50.104Z,10.40
2018-11-06T15:39:17.342Z,10.38
2018-11-06T15:41:44.659Z,10.31
2018-11-06T15:44:11.808Z,10.32
2018-11-06T15:46:39.051Z,10.22
2018-11-06T15:49:06.361Z,10.21
2018-11-06T15:51:33.772Z,10.18
2018-11-06T15:54:01.220Z,10.18
2018-11-06T15:56:28.547Z,10.12
2018-11-06T15:58:55.726Z,9.99
2018-11-06T16:01:24.138Z,9.98
2018-11-06T16:03:51.728Z,9.99
2018-11-06T16:06:18.877Z,9.93
2018-11-06T16:08:46.074Z,9.98
2018-11-06T16:11:13.282Z,9.86
2018-11-06T16:13:40.487Z,9.97
2018-11-06T16:16:07.681Z,9.97
2018-11-06T16:18:34.897Z,9.95
2018-11-06T16:21:02.259Z,9.92
2018-11-06T16:23:29.324Z,9.93
2018-11-06T16:25:56.507Z,9.90
2018-11-06T16:28:23.716Z,9.82
2018-11-06T16:30:50.878Z,9.82
2018-11-06T16:33:18.108Z,9.80
2018-11-06T16:35:45.336Z,9.75
2018-11-06T16:38:12.641Z,9.83
2018-11-06T16:40:39.826Z,9.76
2018-11-06T16:43:07.001Z,9.76
2018-11-06T16:45:34.128Z,9.80
2018-11-06T16:48:01.332Z,9.78
2018-11-06T16:50:28.517Z,9.70
2018-11-06T16:52:55.738Z,9.72
2018-11-06T16:55:22.970Z,9.77
2018-11-06T16:57:50.211Z,9.71
2018-11-06T17:00:22.163Z,9.72
2018-11-06T17:02:49.533Z,9.67
2018-11-06T17:05:16.804Z,9.63
2018-11-06T17:07:44.389Z,9.64
2018-11-06T17:10:12.787Z,9.62
2018-11-06T17:12:39.973Z,9.64
2018-11-06T17:15:23.749Z,9.61
2018-11-06T17:17:52.234Z,9.60
2018-11-06T17:20:19.864Z,9.64
2018-11-06T17:22:47.146Z,9.62
2018-11-06T17:25:15.730Z,9.64
2018-11-06T17:27:43.017Z,9.65
2018-11-06T17:30:12.357Z,9.68
2018-11-06T17:32:39.947Z,9.69
2018-11-06T17:35:08.880Z,9.67
2018-11-06T17:37:36.697Z,9.63
2018-11-06T17:40:04.576Z,9.65
2018-11-06T17:42:31.772Z,9.64
2018-11-06T17:44:59.090Z,9.50
2018-11-06T17:47:26.358Z,9.69
2018-11-06T17:49:53.617Z,9.52
2018-11-06T17:52:20.993Z,9.54
2018-11-06T17:54:48.171Z,9.59
2018-11-06T17:57:15.558Z,9.51
2018-11-06T17:59:42.889Z,9.52
2018-11-06T18:02:13.863Z,9.47
2018-11-06T18:04:41.137Z,9.41
2018-11-06T18:07:08.397Z,9.42
2018-11-06T18:09:35.627Z,9.28
2018-11-06T18:12:02.889Z,9.40
2018-11-06T18:14:30.109Z,9.31
2018-11-06T18:16:57.317Z,9.32
2018-11-06T18:19:24.521Z,9.24
2018-11-06T18:21:51.755Z,9.21
2018-11-06T18:24:19.039Z,9.16
2018-11-06T18:26:46.305Z,9.10
2018-11-06T18:29:13.392Z,8.99
2018-11-06T18:31:40.683Z,8.95
2018-11-06T18:34:08.326Z,8.99
2018-11-06T18:36:35.538Z,8.80
2018-11-06T18:39:03.413Z,8.84
2018-11-06T18:41:30.564Z,8.66
2018-11-06T18:43:57.782Z,8.61
2018-11-06T18:46:25.058Z,8.51
2018-11-06T18:48:52.288Z,8.63
2018-11-06T18:51:19.548Z,8.88
2018-11-06T18:53:46.765Z,8.78
2018-11-06T18:56:13.925Z,8.58
2018-11-06T18:58:41.139Z,8.53
2018-11-06T19:01:08.362Z,8.11
2018-11-06T19:03:35.605Z,8.11
2018-11-06T19:06:02.941Z,8.18
2018-11-06T19:08:30.153Z,8.04
2018-11-06T19:10:57.401Z,7.92
2018-11-06T19:13:24.652Z,8.04
2018-11-06T19:15:51.903Z,8.14
2018-11-06T19:18:19.135Z,8.11
2018-11-06T19:20:46.418Z,8.17
2018-11-06T19:23:13.700Z,8.09
2018-11-06T19:25:40.944Z,8.05
2018-11-06T19:28:08.153Z,7.99
2018-11-06T19:30:35.515Z,7.90
2018-11-06T19:33:02.669Z,7.65
2018-11-06T19:35:29.912Z,7.57
2018-11-06T19:37:57.193Z,7.54
2018-11-06T19:40:24.428Z,7.24
2018-11-06T19:42:51.782Z,7.00
2018-11-06T19:45:19.052Z,7.04
2018-11-06T19:47:46.252Z,6.95
2018-11-06T19:50:15.053Z,7.02
2018-11-06T19:52:42.235Z,7.03
2018-11-06T19:55:11.771Z,7.13
2018-11-06T19:57:38.973Z,7.16
2018-11-06T20:00:13.345Z,7.07
2018-11-06T20:02:41.159Z,6.93
2018-11-06T20:05:08.449Z,6.84
2018-11-06T20:07:35.675Z,6.98
2018-11-06T20:10:03.377Z,7.17
2018-11-06T20:12:30.551Z,6.91
2018-11-06T20:14:57.980Z,6.80
2018-11-06T20:17:25.338Z,6.79
2018-11-06T20:19:52.531Z,6.69
2018-11-06T20:22:19.755Z,6.59
2018-11-06T20:24:46.971Z,6.46
2018-11-06T20:27:14.323Z,6.52
2018-11-06T20:29:41.772Z,6.52
2018-11-06T20:32:08.959Z,6.51
2018-11-06T20:34:36.137Z,6.47
2018-11-06T20:37:04.094Z,6.71
2018-11-06T20:39:31.601Z,6.76
2018-11-06T20:41:58.898Z,6.80
2018-11-06T20:44:26.667Z,6.60
2018-11-06T20:46:53.949Z,6.55
2018-11-06T20:49:21.267Z,6.57
2018-11-06T20:51:48.544Z,6.53
2018-11-06T20:54:15.963Z,6.48
2018-11-06T20:56:43.263Z,6.41
2018-11-06T20:59:10.397Z,6.40
2018-11-06T21:01:37.657Z,6.20
2018-11-06T21:04:05.009Z,6.28
2018-11-06T21:06:32.259Z,6.16
2018-11-06T21:08:59.457Z,6.32
2018-11-06T21:11:26.724Z,6.24
2018-11-06T21:13:54.037Z,6.18
2018-11-06T21:16:21.202Z,6.06
2018-11-06T21:18:48.325Z,5.86
2018-11-06T21:21:15.568Z,5.72
2018-11-06T21:23:42.864Z,5.58
2018-11-06T21:26:10.195Z,5.56
2018-11-06T21:28:37.339Z,5.67
2018-11-06T21:31:04.997Z,5.79
2018-11-06T21:33:33.053Z,5.91
2018-11-06T21:36:00.270Z,5.96
2018-11-06T21:38:27.473Z,5.87
2018-11-06T21:40:54.661Z,5.85
2018-11-06T21:43:21.882Z,5.88
2018-11-06T21:45:49.100Z,5.81
2018-11-06T21:48:16.408Z,5.66
2018-11-06T21:50:43.614Z,5.38
2018-11-06T21:53:10.920Z,5.32
2018-11-06T21:55:38.115Z,5.40
2018-11-06T21:58:05.400Z,5.36
2018-11-06T22:00:32.589Z,5.46
2018-11-06T22:02:59.814Z,5.45
2018-11-06T22:05:27.040Z,5.55
2018-11-06T22:07:54.252Z,5.48
2018-11-06T22:10:21.765Z,5.51
2018-11-06T22:12:49.056Z,5.40
2018-11-06T22:15:17.305Z,5.46
2018-11-06T22:17:44.529Z,5.69
2018-11-06T22:20:13.892Z,5.56
2018-11-06T22:22:41.901Z,5.40
2018-11-06T22:25:09.081Z,5.43
2018-11-06T22:27:36.567Z,5.26
2018-11-06T22:30:05.805Z,5.25
2018-11-06T22:32:33.016Z,5.44
2018-11-06T22:35:00.177Z,5.54
2018-11-06T22:37:27.449Z,5.47
2018-11-06T22:39:54.708Z,5.43
2018-11-06T22:42:21.883Z,5.41
2018-11-06T22:44:49.073Z,5.28
2018-11-06T22:47:16.239Z,5.15
2018-11-06T22:49:43.388Z,5.08
2018-11-06T22:52:10.618Z,5.09
2018-11-06T22:54:37.833Z,5.09
2018-11-06T22:57:05.023Z,4.98
2018-11-06T22:59:32.153Z,5.04
2018-11-06T23:01:59.808Z,5.11
2018-11-06T23:04:27.012Z,5.02
2018-11-06T23:06:54.295Z,5.08
2018-11-06T23:09:21.479Z,5.12
2018-11-06T23:11:48.656Z,4.97
2018-11-06T23:14:15.849Z,4.97
2018-11-06T23:16:43.059Z,5.03
2018-11-06T23:19:10.198Z,5.12
2018-11-06T23:21:37.409Z,4.96
2018-11-06T23:24:04.661Z,4.98
2018-11-06T23:26:31.955Z,5.00
2018-11-06T23:28:59.092Z,5.01
2018-11-06T23:31:26.305Z,4.83
2018-11-06T23:33:53.474Z,4.83
2018-11-06T23:36:20.644Z,4.78
2018-11-06T23:38:47.836Z,4.91
2018-11-06T23:41:15.040Z,4.78
2018-11-06T23:43:42.194Z,4.83
2018-11-06T23:46:09.407Z,4.79
2018-11-06T23:48:36.577Z,4.86
2018-11-06T23:51:03.857Z,5.01
2018-11-06T23:53:31.006Z,4.97
2018-11-06T23:55:58.196Z,5.02
2018-11-06T23:58:25.445Z,4.91
